Time;durP1;ratioP1;P1;durP2;ratioP2;P2;SDS_P1;SDS_P2;PMS_P1;PMS_P2;Temp;Humidity;BMP_temperature;BMP_pressure;BME280_temperature;BME280_humidity;BME280_pressure;Samples;Min_cycle;Max_cycle;Signal;HPM_P1;HPM_P2
2021/08/29 00:01:27;;;;;;;12.75;10.15;;;409.60;2355.20;;;;;;4824035;29;20113;-82
2021/08/29 00:03:53;;;;;;;9.77;8.75;;;409.60;2355.20;;;;;;4807419;29;20044;-83
2021/08/29 00:06:19;;;;;;;11.10;8.90;;;409.60;2355.20;;;;;;4823094;29;20034;-82
2021/08/29 00:08:44;;;;;;;10.00;8.63;;;409.60;2355.20;;;;;;4823906;29;20506;-82
2021/08/29 00:11:10;;;;;;;13.77;9.55;;;384.90;2329.60;;;;;;4807082;29;20030;-83
2021/08/29 00:13:36;;;;;;;10.68;7.97;;;384.90;2329.60;;;;;;4807322;29;20087;-83
2021/08/29 00:16:02;;;;;;;11.30;8.55;;;409.60;2355.20;;;;;;4823312;29;20473;-82
2021/08/29 00:18:27;;;;;;;10.15;8.65;;;384.90;2329.60;;;;;;4823793;29;20026;-82
2021/08/29 00:20:53;;;;;;;10.88;7.97;;;409.60;2355.20;;;;;;4823445;29;20030;-84
2021/08/29 00:23:19;;;;;;;11.60;8.25;;;384.90;2329.60;;;;;;4808928;29;20026;-84
2021/08/29 00:25:44;;;;;;;11.90;8.77;;;409.60;2355.20;;;;;;4808766;29;20125;-84
2021/08/29 00:28:10;;;;;;;10.20;7.60;;;384.90;2329.60;;;;;;4823868;29;20086;-84
2021/08/29 00:30:36;;;;;;;9.18;7.30;;;384.80;2329.60;;;;;;4806754;29;20049;-83
2021/08/29 00:33:01;;;;;;;9.77;7.65;;;384.80;2329.60;;;;;;4823102;29;20396;-84
2021/08/29 00:35:29;;;;;;;7.47;6.60;;;384.90;2329.60;;;;;;4823551;29;20551;-83
2021/08/29 00:37:54;;;;;;;8.27;6.60;;;384.90;2329.60;;;;;;4823274;29;20546;-83
2021/08/29 00:40:20;;;;;;;8.55;6.50;;;384.90;2329.60;;;;;;4813182;29;20035;-86
2021/08/29 00:42:48;;;;;;;8.90;6.43;;;384.90;2329.60;;;;;;4807667;29;20043;-85
2021/08/29 00:45:14;;;;;;;10.10;7.20;;;384.90;2329.60;;;;;;4818914;29;20066;-85
2021/08/29 00:47:40;;;;;;;8.50;7.18;;;384.80;2329.60;;;;;;4823268;29;20038;-86
2021/08/29 00:50:06;;;;;;;8.10;6.53;;;384.70;2329.60;;;;;;4824039;29;20083;-85
2021/08/29 00:52:38;;;;;;;7.65;5.85;;;384.70;2329.60;;;;;;4822190;29;20060;-85
2021/08/29 00:55:07;;;;;;;8.63;6.70;;;384.60;2329.60;;;;;;4817337;29;20477;-83
2021/08/29 00:57:33;;;;;;;7.90;6.65;;;384.50;2329.60;;;;;;4811612;29;20100;-84
2021/08/29 00:59:59;;;;;;;8.43;6.88;;;384.50;2329.60;;;;;;4806739;29;20034;-84
2021/08/29 01:02:26;;;;;;;8.05;6.70;;;384.50;2329.60;;;;;;4806928;29;20535;-83
2021/08/29 01:05:01;;;;;;;9.65;6.78;;;384.60;2329.60;;;;;;4813999;29;20045;-85
2021/08/29 01:07:35;;;;;;;8.30;6.18;;;384.50;2329.60;;;;;;4807505;29;20087;-85
2021/08/29 01:10:06;;;;;;;8.27;6.85;;;384.50;2329.60;;;;;;4806680;29;20035;-84
2021/08/29 01:12:33;;;;;;;9.27;6.93;;;384.40;2329.60;;;;;;4820596;29;20022;-85
2021/08/29 01:15:03;;;;;;;7.20;6.20;;;384.40;2329.60;;;;;;4814395;29;20031;-85
2021/08/29 01:17:32;;;;;;;7.22;6.05;;;384.40;2329.60;;;;;;4806297;29;20064;-85
2021/08/29 01:20:19;;;;;;;8.32;6.45;;;384.30;2329.60;;;;;;4809260;29;20035;-86
2021/08/29 01:22:47;;;;;;;8.18;6.85;;;384.30;2329.60;;;;;;4810027;29;20039;-84
2021/08/29 01:25:19;;;;;;;10.15;6.85;;;384.30;2329.60;;;;;;4825533;29;20045;-84
2021/08/29 01:27:56;;;;;;;7.63;6.13;;;384.30;2329.60;;;;;;4810333;29;20060;-84
2021/08/29 01:30:22;;;;;;;12.40;6.95;;;384.30;2329.60;;;;;;4809466;29;20035;-85
2021/08/29 01:32:50;;;;;;;8.55;6.28;;;384.30;2329.60;;;;;;4817105;29;20050;-83
2021/08/29 01:35:16;;;;;;;9.30;7.65;;;384.30;2329.60;;;;;;4825261;29;20038;-84
2021/08/29 01:37:43;;;;;;;7.93;6.63;;;384.30;2329.60;;;;;;4815489;29;20182;-84
2021/08/29 01:40:10;;;;;;;10.98;7.05;;;384.30;2329.60;;;;;;4825071;29;20052;-85
2021/08/29 01:42:38;;;;;;;12.85;8.43;;;384.30;2329.60;;;;;;4824639;29;20035;-84
2021/08/29 01:45:04;;;;;;;9.52;7.55;;;384.30;2329.60;;;;;;4826130;29;20022;-84
2021/08/29 01:47:30;;;;;;;11.27;8.38;;;384.30;2329.60;;;;;;4823643;29;20061;-84
2021/08/29 01:49:57;;;;;;;8.05;7.13;;;384.30;2329.60;;;;;;4825085;29;20034;-85
2021/08/29 01:52:23;;;;;;;11.00;8.20;;;384.30;2329.60;;;;;;4824053;29;20026;-85
2021/08/29 01:54:49;;;;;;;11.25;8.80;;;384.30;2329.60;;;;;;4825895;29;20035;-84
2021/08/29 01:57:15;;;;;;;11.85;9.85;;;384.30;2329.60;;;;;;4812225;29;20026;-84
2021/08/29 01:59:43;;;;;;;12.95;8.27;;;384.30;2329.60;;;;;;4814133;29;20086;-84
2021/08/29 02:02:10;;;;;;;10.77;7.85;;;384.30;2329.60;;;;;;4824892;29;20050;-85
2021/08/29 02:04:37;;;;;;;13.23;8.70;;;384.30;2329.60;;;;;;4820594;29;20442;-85
2021/08/29 02:07:26;;;;;;;14.55;8.27;;;384.30;2329.60;;;;;;4818523;29;20030;-84
2021/08/29 02:09:58;;;;;;;12.30;7.82;;;384.40;2329.60;;;;;;4824564;29;20034;-84
2021/08/29 02:12:25;;;;;;;10.18;8.77;;;384.40;2329.60;;;;;;4823670;29;20033;-84
2021/08/29 02:15:13;;;;;;;15.10;8.82;;;384.40;2329.60;;;;;;4825365;29;20033;-84
2021/08/29 02:17:40;;;;;;;14.60;8.35;;;384.40;2329.60;;;;;;4820662;29;20042;-84
2021/08/29 02:20:19;;;;;;;12.48;8.93;;;384.50;2329.60;;;;;;4807945;29;20129;-83
2021/08/29 02:22:45;;;;;;;10.18;7.63;;;384.50;2329.60;;;;;;4800605;29;20045;-84
2021/08/29 02:25:11;;;;;;;10.13;8.43;;;384.50;2329.60;;;;;;4805622;29;20055;-84
2021/08/29 02:27:38;;;;;;;12.75;9.38;;;384.50;2329.60;;;;;;4806292;29;20098;-85
2021/08/29 02:30:08;;;;;;;10.15;8.20;;;384.60;2329.60;;;;;;4808402;29;20061;-84
2021/08/29 02:32:42;;;;;;;11.15;8.13;;;384.60;2329.60;;;;;;4808508;29;20056;-84
2021/08/29 02:35:09;;;;;;;9.68;7.38;;;384.60;2329.60;;;;;;4825317;29;20031;-84
2021/08/29 02:37:37;;;;;;;10.77;8.90;;;384.60;2329.60;;;;;;4824546;29;20508;-84
2021/08/29 02:40:06;;;;;;;10.25;8.82;;;384.70;2329.60;;;;;;4808725;29;20059;-84
2021/08/29 02:42:33;;;;;;;9.70;7.88;;;384.70;2329.60;;;;;;4814434;29;20030;-84
2021/08/29 02:45:02;;;;;;;11.20;8.73;;;384.70;2329.60;;;;;;4824013;29;20026;-84
2021/08/29 02:47:30;;;;;;;9.43;8.02;;;384.70;2329.60;;;;;;4823059;29;20397;-85
2021/08/29 02:49:57;;;;;;;10.25;8.57;;;384.70;2329.60;;;;;;4824191;29;20109;-85
2021/08/29 02:52:24;;;;;;;9.73;7.22;;;384.70;2329.60;;;;;;4825079;29;20110;-84
2021/08/29 02:54:50;;;;;;;10.30;8.60;;;384.70;2329.60;;;;;;4823666;29;20027;-84
2021/08/29 02:57:18;;;;;;;12.00;8.93;;;384.60;2329.60;;;;;;4817023;29;20038;-84
2021/08/29 02:59:44;;;;;;;14.70;11.30;;;384.70;2329.60;;;;;;4802103;29;20037;-84
2021/08/29 03:02:11;;;;;;;15.88;12.85;;;384.60;2329.60;;;;;;4817051;29;20037;-85
2021/08/29 03:04:37;;;;;;;17.10;13.00;;;384.60;2329.60;;;;;;4802007;29;20037;-87
2021/08/29 03:07:04;;;;;;;17.55;13.13;;;384.50;2329.60;;;;;;4806538;29;20037;-86
2021/08/29 03:09:33;;;;;;;13.52;11.57;;;384.60;2329.60;;;;;;4808123;29;20038;-86
2021/08/29 03:12:07;;;;;;;16.80;12.07;;;384.60;2329.60;;;;;;4806484;29;20034;-84
2021/08/29 03:14:34;;;;;;;14.80;11.85;;;384.60;2329.60;;;;;;4808048;29;20057;-86
2021/08/29 03:17:01;;;;;;;16.15;13.18;;;384.60;2329.60;;;;;;4805850;29;20027;-86
2021/08/29 03:19:27;;;;;;;16.20;12.70;;;384.70;2329.60;;;;;;4816673;29;20026;-85
2021/08/29 03:21:53;;;;;;;14.27;12.27;;;384.70;2329.60;;;;;;4829165;29;20030;-85
2021/08/29 03:24:20;;;;;;;12.38;11.07;;;384.80;2329.60;;;;;;4808428;29;20026;-86
2021/08/29 03:26:47;;;;;;;11.10;9.90;;;384.90;2329.60;;;;;;4809751;29;20746;-85
2021/08/29 03:29:12;;;;;;;12.90;10.35;;;384.80;2329.60;;;;;;4808234;29;20680;-82
2021/08/29 03:31:38;;;;;;;11.10;9.82;;;384.90;2329.60;;;;;;4809905;29;20034;-83
2021/08/29 03:34:06;;;;;;;11.27;9.00;;;384.90;2329.60;;;;;;4821170;29;20125;-84
2021/08/29 03:36:34;;;;;;;13.38;9.50;;;384.90;2329.60;;;;;;4803176;29;20510;-83
2021/08/29 03:39:01;;;;;;;10.82;9.48;;;384.80;2329.60;;;;;;4807068;29;20038;-84
2021/08/29 03:41:29;;;;;;;11.73;9.32;;;384.90;2329.60;;;;;;4807103;29;20156;-86
2021/08/29 03:43:55;;;;;;;9.35;8.40;;;384.80;2329.60;;;;;;4816531;29;20125;-84
2021/08/29 03:46:22;;;;;;;12.85;8.80;;;384.80;2329.60;;;;;;4808144;29;20116;-84
2021/08/29 03:48:48;;;;;;;10.40;8.50;;;384.80;2329.60;;;;;;4807597;29;20079;-85
2021/08/29 03:51:16;;;;;;;9.63;8.55;;;384.90;2329.60;;;;;;4824232;29;20045;-84
2021/08/29 03:53:43;;;;;;;11.38;8.68;;;384.80;2329.60;;;;;;4807510;29;20037;-85
2021/08/29 03:56:11;;;;;;;10.25;8.85;;;384.80;2329.60;;;;;;4807409;29;20041;-85
2021/08/29 03:58:40;;;;;;;10.70;8.82;;;384.90;2329.60;;;;;;4807848;29;20864;-85
2021/08/29 04:01:06;;;;;;;10.20;9.13;;;384.80;2329.60;;;;;;4823633;29;20027;-84
2021/08/29 04:03:33;;;;;;;9.63;8.38;;;384.90;2329.60;;;;;;4813316;29;20121;-86
2021/08/29 04:06:00;;;;;;;11.23;8.18;;;384.80;2329.60;;;;;;4814355;29;20088;-84
2021/08/29 04:08:38;;;;;;;8.40;7.47;;;384.90;2329.60;;;;;;4807712;29;20039;-85
2021/08/29 04:11:06;;;;;;;10.93;8.52;;;384.80;2329.60;;;;;;4807279;29;20062;-84
2021/08/29 04:13:32;;;;;;;11.00;9.07;;;384.90;2329.60;;;;;;4807032;29;20075;-83
2021/08/29 04:16:02;;;;;;;11.65;8.50;;;384.80;2329.60;;;;;;4807482;29;20027;-85
2021/08/29 04:18:31;;;;;;;11.77;8.25;;;384.80;2329.60;;;;;;4814388;29;20500;-84
2021/08/29 04:20:57;;;;;;;10.75;9.13;;;384.80;2329.60;;;;;;4807295;29;20500;-85
2021/08/29 04:23:23;;;;;;;10.48;9.00;;;384.70;2329.60;;;;;;4814358;29;20043;-84
2021/08/29 04:25:49;;;;;;;11.40;9.85;;;384.70;2329.60;;;;;;4807197;29;20062;-84
2021/08/29 04:28:15;;;;;;;12.23;9.77;;;384.70;2329.60;;;;;;4823143;29;20038;-85
2021/08/29 04:30:41;;;;;;;14.93;10.02;;;384.70;2329.60;;;;;;4807423;29;20114;-84
2021/08/29 04:33:07;;;;;;;11.85;9.68;;;384.70;2329.60;;;;;;4806836;29;20115;-84
2021/08/29 04:35:32;;;;;;;11.80;9.18;;;384.70;2329.60;;;;;;4823246;29;20476;-85
2021/08/29 04:37:58;;;;;;;11.43;9.55;;;384.90;2329.60;;;;;;4823872;29;20030;-85
2021/08/29 04:40:24;;;;;;;15.52;9.88;;;384.90;2329.60;;;;;;4823152;29;20030;-84
2021/08/29 04:42:49;;;;;;;10.93;9.43;;;409.60;2355.20;;;;;;4807089;29;20035;-82
2021/08/29 04:45:15;;;;;;;12.93;10.05;;;409.60;2355.20;;;;;;4823505;29;21057;-86
2021/08/29 04:47:41;;;;;;;11.73;10.23;;;409.70;2355.20;;;;;;4807545;29;20031;-85
2021/08/29 04:50:07;;;;;;;13.38;10.75;;;409.80;2355.20;;;;;;4816187;29;20083;-84
2021/08/29 04:52:32;;;;;;;10.57;9.48;;;409.80;2355.20;;;;;;4820468;29;20027;-85
2021/08/29 04:54:58;;;;;;;11.27;9.55;;;409.80;2355.20;;;;;;4818233;29;20336;-85
2021/08/29 04:57:24;;;;;;;13.52;9.45;;;409.80;2355.20;;;;;;4813575;29;20083;-85
2021/08/29 04:59:49;;;;;;;12.70;9.63;;;409.90;2355.20;;;;;;4819420;29;20030;-84
2021/08/29 05:02:16;;;;;;;11.80;9.43;;;410.00;2355.20;;;;;;4810113;29;20441;-83
2021/08/29 05:04:41;;;;;;;12.07;9.75;;;410.00;2355.20;;;;;;4810777;29;20125;-84
2021/08/29 05:07:07;;;;;;;11.85;9.20;;;410.00;2355.20;;;;;;4810123;29;20125;-84
2021/08/29 05:09:33;;;;;;;11.20;8.70;;;410.10;2355.20;;;;;;4812708;29;20026;-84
2021/08/29 05:11:58;;;;;;;11.57;9.43;;;410.10;2355.20;;;;;;4826159;29;20034;-84
2021/08/29 05:14:24;;;;;;;11.32;9.60;;;410.10;2355.20;;;;;;4825238;29;20484;-85
2021/08/29 05:16:50;;;;;;;11.30;9.07;;;410.20;2355.20;;;;;;4810599;29;20125;-85
2021/08/29 05:19:16;;;;;;;14.05;10.68;;;410.20;2355.20;;;;;;4821845;29;20091;-85
2021/08/29 05:21:41;;;;;;;15.82;10.73;;;410.20;2355.20;;;;;;4810136;29;20030;-84
2021/08/29 05:24:08;;;;;;;11.35;9.65;;;410.20;2355.20;;;;;;4819863;29;20073;-85
2021/08/29 05:26:33;;;;;;;13.80;10.80;;;410.20;2355.20;;;;;;4809616;29;20125;-84
2021/08/29 05:29:00;;;;;;;12.93;10.27;;;410.30;2355.20;;;;;;4810312;29;20551;-86
2021/08/29 05:31:26;;;;;;;11.38;10.15;;;410.30;2355.20;;;;;;4825981;29;20385;-86
2021/08/29 05:33:51;;;;;;;16.77;11.07;;;410.30;2355.20;;;;;;4822345;29;20051;-86
2021/08/29 05:36:17;;;;;;;13.32;11.18;;;410.40;2355.20;;;;;;4818302;29;20034;-86
2021/08/29 05:38:43;;;;;;;13.23;10.95;;;410.40;2355.20;;;;;;4824318;29;20444;-87
2021/08/29 05:41:08;;;;;;;13.90;12.25;;;410.50;2355.20;;;;;;4819030;29;20031;-86
2021/08/29 05:43:34;;;;;;;15.38;13.07;;;410.50;2355.20;;;;;;4808816;29;20030;-86
2021/08/29 05:46:00;;;;;;;16.75;12.10;;;410.40;2355.20;;;;;;4813758;29;20484;-85
2021/08/29 05:48:26;;;;;;;16.70;12.90;;;410.50;2355.20;;;;;;4814546;29;20039;-85
2021/08/29 05:50:51;;;;;;;18.40;13.95;;;435.20;2355.20;;;;;;4824014;29;20022;-85
2021/08/29 05:53:17;;;;;;;16.15;13.05;;;435.20;2355.20;;;;;;4816168;29;20023;-84
2021/08/29 05:55:43;;;;;;;16.25;13.77;;;435.30;2355.20;;;;;;4822393;29;20442;-85
2021/08/29 05:58:08;;;;;;;14.00;11.77;;;435.40;2355.20;;;;;;4809592;29;20121;-85
2021/08/29 06:00:34;;;;;;;18.83;12.50;;;435.50;2355.20;;;;;;4809690;29;20115;-85
2021/08/29 06:03:00;;;;;;;16.63;12.95;;;435.50;2355.20;;;;;;4826147;29;20065;-84
2021/08/29 06:05:27;;;;;;;13.95;11.88;;;435.70;2355.20;;;;;;4818420;29;20062;-82
2021/08/29 06:07:53;;;;;;;14.90;12.10;;;435.80;2355.20;;;;;;4825975;29;20027;-85
2021/08/29 06:10:19;;;;;;;11.88;10.60;;;435.90;2355.20;;;;;;4824768;29;20049;-87
2021/08/29 06:12:45;;;;;;;14.27;10.25;;;436.00;2355.20;;;;;;4825107;29;20079;-86
2021/08/29 06:15:11;;;;;;;13.52;11.25;;;436.00;2355.20;;;;;;4824661;29;20038;-85
2021/08/29 06:17:37;;;;;;;13.55;10.82;;;436.10;2355.20;;;;;;4813287;29;20041;-84
2021/08/29 06:20:06;;;;;;;12.82;10.88;;;436.10;2355.20;;;;;;4808655;29;20035;-86
2021/08/29 06:22:32;;;;;;;12.38;10.05;;;436.10;2355.20;;;;;;4818692;29;20033;-85
2021/08/29 06:24:58;;;;;;;12.82;10.57;;;436.10;2355.20;;;;;;4814409;29;20034;-85
2021/08/29 06:27:23;;;;;;;11.55;10.35;;;436.10;2355.20;;;;;;4810916;29;20037;-85
2021/08/29 06:29:51;;;;;;;13.60;11.07;;;460.80;2380.80;;;;;;4809404;29;20076;-84
2021/08/29 06:32:16;;;;;;;13.85;9.95;;;460.80;2380.80;;;;;;4814823;29;20776;-85
2021/08/29 06:34:42;;;;;;;11.52;9.85;;;460.80;2380.80;;;;;;4824335;29;20095;-85
2021/08/29 06:37:08;;;;;;;12.02;10.30;;;460.90;2380.80;;;;;;4823870;29;20034;-83
2021/08/29 06:39:33;;;;;;;13.65;10.98;;;461.00;2380.80;;;;;;4823019;29;20125;-82
2021/08/29 06:41:59;;;;;;;14.75;10.40;;;461.20;2380.80;;;;;;4824458;29;20053;-82
2021/08/29 06:44:25;;;;;;;14.23;11.18;;;461.30;2380.80;;;;;;4815937;29;20046;-82
2021/08/29 06:46:50;;;;;;;14.02;10.73;;;461.30;2380.80;;;;;;4809775;29;20066;-80
2021/08/29 06:49:16;;;;;;;15.75;11.00;;;461.30;2380.80;;;;;;4824793;29;20030;-82
2021/08/29 06:51:42;;;;;;;13.43;10.65;;;461.60;2380.80;;;;;;4819383;29;20542;-82
2021/08/29 06:54:08;;;;;;;16.52;10.57;;;486.40;2380.80;;;;;;4812220;29;20069;-82
2021/08/29 06:56:33;;;;;;;11.80;10.35;;;486.40;2380.80;;;;;;4824992;29;20041;-82
2021/08/29 06:58:59;;;;;;;13.35;10.80;;;486.60;2380.80;;;;;;4823167;29;20109;-82
2021/08/29 07:01:25;;;;;;;11.02;9.93;;;486.70;2380.80;;;;;;4813893;29;20038;-83
2021/08/29 07:03:50;;;;;;;12.82;10.18;;;486.60;2380.80;;;;;;4800198;29;20545;-82
2021/08/29 07:06:16;;;;;;;17.60;9.88;;;486.60;2380.80;;;;;;4801059;29;20027;-82
2021/08/29 07:08:42;;;;;;;12.52;10.93;;;486.60;2380.80;;;;;;4818054;29;20061;-82
2021/08/29 07:11:07;;;;;;;14.68;12.05;;;486.50;2380.80;;;;;;4820028;29;20026;-82
2021/08/29 07:13:33;;;;;;;12.32;10.13;;;486.70;2380.80;;;;;;4808326;29;20030;-81
2021/08/29 07:15:59;;;;;;;11.75;8.20;;;487.00;2380.80;;;;;;4807675;29;20061;-83
2021/08/29 07:18:25;;;;;;;9.85;8.85;;;487.00;2380.80;;;;;;4808138;29;20049;-81
2021/08/29 07:20:51;;;;;;;10.43;9.43;;;487.00;2380.80;;;;;;4823260;29;20404;-81
2021/08/29 07:23:17;;;;;;;14.05;10.80;;;487.00;2380.80;;;;;;4808313;29;20062;-80
2021/08/29 07:25:44;;;;;;;11.45;9.98;;;487.00;2380.80;;;;;;4806034;29;20027;-81
2021/08/29 07:28:10;;;;;;;13.60;11.52;;;487.00;2380.80;;;;;;4822310;29;20030;-82
2021/08/29 07:30:35;;;;;;;11.45;9.98;;;486.90;2380.80;;;;;;4808284;29;20134;-84
2021/08/29 07:33:01;;;;;;;12.77;9.45;;;486.90;2380.80;;;;;;4807501;29;20045;-81
2021/08/29 07:35:27;;;;;;;12.70;10.45;;;486.90;2380.80;;;;;;4803007;29;20074;-82
2021/08/29 07:37:53;;;;;;;12.27;9.52;;;486.70;2380.80;;;;;;4816431;29;20122;-82
2021/08/29 07:40:19;;;;;;;13.88;10.32;;;486.90;2380.80;;;;;;4801597;29;20061;-82
2021/08/29 07:42:46;;;;;;;13.13;11.18;;;486.70;2380.80;;;;;;4824944;29;20294;-81
2021/08/29 07:45:12;;;;;;;11.68;10.48;;;486.90;2380.80;;;;;;4803238;29;20038;-81
2021/08/29 07:47:38;;;;;;;12.30;10.93;;;487.00;2380.80;;;;;;4821045;29;20458;-82
2021/08/29 07:50:05;;;;;;;10.13;9.05;;;487.00;2380.80;;;;;;4824353;29;20026;-83
2021/08/29 07:52:31;;;;;;;12.18;10.88;;;487.30;2380.80;;;;;;4814023;29;20041;-82
2021/08/29 07:54:57;;;;;;;10.82;9.43;;;512.00;2380.80;;;;;;4808960;29;20132;-83
2021/08/29 07:57:23;;;;;;;12.35;10.50;;;512.20;2380.80;;;;;;4816884;29;20062;-82
2021/08/29 07:59:49;;;;;;;14.05;10.93;;;512.40;2380.80;;;;;;4819075;29;20064;-81
2021/08/29 08:02:16;;;;;;;11.45;10.32;;;512.60;2380.80;;;;;;4802915;29;20030;-83
2021/08/29 08:04:42;;;;;;;11.30;10.20;;;512.70;2380.80;;;;;;4801867;29;20042;-85
2021/08/29 08:07:08;;;;;;;15.02;9.90;;;512.60;2380.80;;;;;;4801093;29;20062;-84
2021/08/29 08:09:34;;;;;;;13.43;9.80;;;512.90;2380.80;;;;;;4807914;29;20080;-84
2021/08/29 08:12:00;;;;;;;11.35;10.15;;;537.70;2406.40;;;;;;4801715;29;20511;-84
2021/08/29 08:14:26;;;;;;;12.25;10.27;;;537.70;2406.40;;;;;;4800157;29;20027;-84
2021/08/29 08:16:52;;;;;;;11.43;10.10;;;512.90;2380.80;;;;;;4803378;29;20516;-83
2021/08/29 08:19:18;;;;;;;12.25;11.02;;;537.60;2406.40;;;;;;4802618;29;20034;-83
2021/08/29 08:21:43;;;;;;;10.50;8.60;;;538.00;2406.40;;;;;;4807052;29;20031;-83
2021/08/29 08:24:09;;;;;;;11.57;10.38;;;538.30;2406.40;;;;;;4802972;29;20916;-82
2021/08/29 08:26:35;;;;;;;16.52;10.20;;;538.30;2406.40;;;;;;4810145;29;20147;-83
2021/08/29 08:29:01;;;;;;;11.52;9.40;;;538.20;2406.40;;;;;;4808053;29;20393;-83
2021/08/29 08:31:26;;;;;;;10.50;9.40;;;538.40;2406.40;;;;;;4817454;29;20034;-83
2021/08/29 08:33:52;;;;;;;10.82;8.98;;;538.50;2406.40;;;;;;4812189;29;20070;-81
2021/08/29 08:36:18;;;;;;;10.95;9.77;;;563.20;2432.00;;;;;;4816698;29;20480;-83
2021/08/29 08:38:43;;;;;;;9.88;8.88;;;563.20;2432.00;;;;;;4798325;29;20030;-83
2021/08/29 08:41:09;;;;;;;12.80;10.20;;;563.80;2432.00;;;;;;4798326;29;20118;-80
2021/08/29 08:43:35;;;;;;;12.35;9.27;;;589.00;2432.00;;;;;;4819393;29;20083;-83
2021/08/29 08:46:03;;;;;;;10.73;9.73;;;588.80;2432.00;;;;;;4803140;29;20035;-83
2021/08/29 08:48:29;;;;;;;10.13;9.13;;;588.90;2432.00;;;;;;4804202;29;20064;-85
2021/08/29 08:50:58;;;;;;;9.68;8.77;;;588.90;2432.00;;;;;;4805728;29;20037;-84
2021/08/29 08:53:24;;;;;;;10.73;9.60;;;563.70;2432.00;;;;;;4795672;29;20081;-83
2021/08/29 08:55:51;;;;;;;10.35;9.27;;;563.60;2432.00;;;;;;4800102;29;20548;-86
2021/08/29 08:58:18;;;;;;;12.23;9.02;;;563.70;2432.00;;;;;;4806381;29;20038;-84
2021/08/29 09:00:45;;;;;;;10.30;9.25;;;563.50;2432.00;;;;;;4808517;29;20038;-86
2021/08/29 09:03:11;;;;;;;16.88;12.82;;;563.50;2432.00;;;;;;4804830;29;20508;-86
2021/08/29 09:05:38;;;;;;;12.07;9.55;;;563.50;2432.00;;;;;;4815014;29;20435;-82
2021/08/29 09:08:05;;;;;;;12.25;10.73;;;563.50;2432.00;;;;;;4815084;29;20061;-85
2021/08/29 09:10:30;;;;;;;14.43;12.93;;;563.80;2432.00;;;;;;4815765;29;20109;-83
2021/08/29 09:13:01;;;;;;;9.82;8.82;;;563.90;2432.00;;;;;;4816030;29;20126;-85
2021/08/29 09:15:28;;;;;;;11.45;10.05;;;564.10;2432.00;;;;;;4815321;29;20026;-87
2021/08/29 09:17:55;;;;;;;10.95;9.55;;;588.80;2432.00;;;;;;4801878;29;20392;-89
2021/08/29 09:20:29;;;;;;;11.95;8.90;;;589.10;2432.00;;;;;;4781386;29;20389;-82
2021/08/29 09:23:08;;;;;;;13.65;9.63;;;589.40;2432.00;;;;;;4818746;29;20027;-81
2021/08/29 09:25:45;;;;;;;17.60;10.82;;;614.80;2432.00;;;;;;4813158;29;20062;-79
2021/08/29 09:28:15;;;;;;;9.75;8.43;;;614.60;2432.00;;;;;;4799021;29;20053;-79
2021/08/29 09:30:43;;;;;;;10.02;7.43;;;614.80;2432.00;;;;;;4814705;29;20565;-80
2021/08/29 09:33:10;;;;;;;10.05;7.93;;;614.80;2432.00;;;;;;4820656;29;20051;-82
2021/08/29 09:35:36;;;;;;;10.02;8.82;;;614.40;2432.00;;;;;;4820377;29;20110;-81
2021/08/29 09:38:05;;;;;;;10.57;7.95;;;589.60;2432.00;;;;;;4798245;29;20054;-79
2021/08/29 09:40:35;;;;;;;12.25;11.02;;;589.50;2432.00;;;;;;4813428;29;20018;-80
2021/08/29 09:43:03;;;;;;;10.55;9.02;;;589.20;2432.00;;;;;;4806850;29;20035;-79
2021/08/29 09:45:33;;;;;;;9.10;8.10;;;589.20;2432.00;;;;;;4809760;29;20155;-81
2021/08/29 09:48:12;;;;;;;9.48;8.18;;;589.70;2432.00;;;;;;4814446;29;20099;-82
2021/08/29 09:50:41;;;;;;;11.13;8.18;;;614.50;2432.00;;;;;;4815208;29;20558;-80
2021/08/29 11:13:36;;;;;;;7.53;6.35;;;563.50;2432.00;;;;;;5047424;28;20697;-83
2021/08/29 11:16:14;;;;;;;10.68;5.38;;;563.70;2432.00;;;;;;5053096;28;20028;-83
2021/08/29 11:19:01;;;;;;;6.93;4.85;;;563.70;2432.00;;;;;;5040474;28;20018;-84
2021/08/29 11:21:47;;;;;;;7.18;5.47;;;563.80;2432.00;;;;;;5056200;28;20049;-84
2021/08/29 11:24:13;;;;;;;9.07;7.03;;;564.00;2432.00;;;;;;5039328;28;20030;-85
2021/08/29 11:26:42;;;;;;;11.25;6.30;;;588.90;2432.00;;;;;;5041758;28;20121;-83
2021/08/29 11:29:57;;;;;;;7.85;5.50;;;589.00;2432.00;;;;;;5045700;28;20013;-80
2021/08/29 11:32:39;;;;;;;9.00;5.38;;;589.00;2432.00;;;;;;5037156;28;20046;-80
2021/08/29 11:35:09;;;;;;;7.25;6.40;;;588.80;2432.00;;;;;;5040218;28;20032;-80
2021/08/29 11:37:35;;;;;;;7.57;6.40;;;564.10;2432.00;;;;;;5042564;28;20022;-87
2021/08/29 11:40:06;;;;;;;8.80;6.13;;;564.00;2432.00;;;;;;5044057;28;20037;-86
2021/08/29 11:42:33;;;;;;;8.55;6.70;;;563.90;2432.00;;;;;;5045110;28;20512;-86
2021/08/29 11:44:59;;;;;;;7.85;6.88;;;563.60;2432.00;;;;;;5040338;28;20444;-85
2021/08/29 11:47:35;;;;;;;7.68;6.43;;;563.50;2432.00;;;;;;5040816;28;20029;-84
2021/08/29 11:50:03;;;;;;;7.70;6.10;;;563.30;2432.00;;;;;;5036698;28;20029;-86
2021/08/29 11:52:31;;;;;;;7.45;6.35;;;563.20;2432.00;;;;;;5044482;28;20035;-86
2021/08/29 11:55:10;;;;;;;7.60;6.43;;;563.20;2432.00;;;;;;5052902;28;20033;-85
2021/08/29 11:57:50;;;;;;;8.88;7.05;;;538.40;2406.40;;;;;;5042224;28;20018;-85
2021/08/29 12:00:17;;;;;;;7.93;6.57;;;538.40;2406.40;;;;;;5043249;28;20163;-86
2021/08/29 12:02:44;;;;;;;10.02;7.63;;;538.20;2406.40;;;;;;5048187;28;20044;-86
2021/08/29 12:05:15;;;;;;;7.45;6.63;;;538.20;2406.40;;;;;;5042897;28;20049;-86
2021/08/29 12:07:55;;;;;;;9.48;6.40;;;538.10;2406.40;;;;;;5044796;28;20022;-86
2021/08/29 12:10:23;;;;;;;8.77;7.68;;;538.00;2406.40;;;;;;5041844;28;20060;-86
2021/08/29 12:12:49;;;;;;;10.10;8.38;;;538.00;2406.40;;;;;;5038406;28;20061;-86
2021/08/29 12:15:15;;;;;;;7.70;6.30;;;538.00;2406.40;;;;;;5038966;28;20075;-86
2021/08/29 12:17:43;;;;;;;6.80;6.10;;;537.80;2406.40;;;;;;5039183;28;20543;-86
2021/08/29 12:20:10;;;;;;;7.10;5.63;;;537.60;2406.40;;;;;;5038224;28;20051;-86
2021/08/29 12:22:36;;;;;;;10.18;7.25;;;537.60;2406.40;;;;;;5037670;28;20034;-87
2021/08/29 12:25:03;;;;;;;11.50;9.15;;;512.80;2380.80;;;;;;5024693;28;20061;-86
2021/08/29 12:27:30;;;;;;;9.75;7.85;;;512.60;2380.80;;;;;;5026053;28;20073;-86
2021/08/29 12:30:00;;;;;;;7.97;7.15;;;512.50;2380.80;;;;;;5028385;28;20041;-86
2021/08/29 12:32:35;;;;;;;11.25;7.20;;;512.30;2380.80;;;;;;5026082;28;20042;-86
2021/08/29 12:35:06;;;;;;;9.25;8.23;;;512.30;2380.80;;;;;;5060108;28;20034;-86
2021/08/29 12:37:40;;;;;;;13.77;8.48;;;512.20;2380.80;;;;;;5022980;28;20025;-86
2021/08/29 12:40:08;;;;;;;13.07;9.60;;;512.20;2380.80;;;;;;5028423;28;20075;-85
2021/08/29 12:42:37;;;;;;;13.10;9.45;;;512.20;2380.80;;;;;;5024688;28;20033;-86
2021/08/29 12:45:06;;;;;;;8.82;7.50;;;512.00;2380.80;;;;;;5029959;28;20573;-86
2021/08/29 12:47:32;;;;;;;9.30;7.63;;;487.30;2380.80;;;;;;5024344;28;20030;-86
2021/08/29 12:50:00;;;;;;;8.30;7.50;;;487.20;2380.80;;;;;;5023485;28;20025;-86
2021/08/29 12:52:30;;;;;;;9.98;7.20;;;487.10;2380.80;;;;;;5028187;28;20017;-87
2021/08/29 12:54:56;;;;;;;8.60;6.97;;;486.90;2380.80;;;;;;5028225;28;20029;-86
2021/08/29 12:57:26;;;;;;;11.68;7.57;;;486.90;2380.80;;;;;;5023581;28;20164;-82
2021/08/29 12:59:56;;;;;;;10.75;8.20;;;486.80;2380.80;;;;;;5022817;28;20037;-87
2021/08/29 13:02:24;;;;;;;11.32;8.00;;;486.90;2380.80;;;;;;5019565;28;20046;-87
2021/08/29 13:04:53;;;;;;;10.55;8.55;;;486.90;2380.80;;;;;;5029961;28;20365;-89
2021/08/29 13:07:19;;;;;;;11.95;9.43;;;486.70;2380.80;;;;;;5026753;28;20063;-87
2021/08/29 13:09:45;;;;;;;9.50;8.38;;;486.50;2380.80;;;;;;5029642;28;20040;-85
2021/08/29 13:12:29;;;;;;;9.77;8.88;;;486.40;2380.80;;;;;;5024109;28;20500;-87
2021/08/29 13:14:58;;;;;;;9.73;8.80;;;461.70;2380.80;;;;;;5024179;28;20054;-87
2021/08/29 13:17:25;;;;;;;10.80;9.20;;;461.40;2380.80;;;;;;5031638;28;20111;-87
2021/08/29 13:20:02;;;;;;;12.80;10.65;;;461.30;2380.80;;;;;;5030458;28;20056;-85
2021/08/29 13:22:35;;;;;;;12.48;10.73;;;461.20;2380.80;;;;;;5057162;28;20026;-86
2021/08/29 13:25:17;;;;;;;14.98;12.68;;;461.10;2380.80;;;;;;5031032;28;20045;-87
2021/08/29 13:27:43;;;;;;;17.50;13.55;;;461.20;2380.80;;;;;;5032878;28;20033;-89
2021/08/29 13:30:10;;;;;;;18.63;14.50;;;461.10;2380.80;;;;;;5032544;28;20107;-90
2021/08/29 13:32:37;;;;;;;17.15;15.23;;;461.20;2380.80;;;;;;5018747;28;20073;-86